Priwall — V2OX8 — position and weather

sailwx.info

Track history (hours):
 
Tides and Currents Weather Stations Pressure Air Temp Water Temp Dewpoint Dewpoint Depression Visibility Wind Speed Wind Dir Waves Ship Positions

Priwall

Last reported at 2017-Apr-28 15:49 UTC. Time now 2017-Apr-28 16:10 UTC.
Position N 51°33' W 002°59'.

Length 88 m; draft 3.3 m.

Type: Cargo ship. MMSI: 304739000.

Date/timePositionNaut miles runAvg speedWind from/ knotsBaromVisibWave heightAir tempDewpointWater temp
2017-Apr-28 15:49N 51°33' W 002°59'0 0.0
2017-Apr-28 15:13N 51°33' W 002°59'0 0.0
2017-Apr-28 14:55N 51°33' W 002°59'0 0.0
2017-Apr-28 13:55N 51°33' W 002°59'0 0.0
2017-Apr-28 13:19N 51°33' W 002°59'0 0.0
2017-Apr-28 12:55N 51°33' W 002°59'0 0.0
2017-Apr-28 12:25N 51°33' W 002°59'0 0.0
2017-Apr-28 11:55N 51°33' W 002°59'0 0.0
2017-Apr-28 11:25N 51°33' W 002°59'0 0.0
2017-Apr-28 10:55N 51°33' W 002°59'0 0.0
2017-Apr-28 10:07N 51°33' W 002°59'0 0.0
2017-Apr-28 05:37N 51°33' W 002°59'0 0.0
2017-Apr-28 05:25N 51°33' W 002°59'0 0.0
2017-Apr-28 04:13N 51°33' W 002°59'0 0.0
2017-Apr-28 03:43N 51°33' W 002°59'0 0.0
2017-Apr-28 03:19N 51°33' W 002°59'0 0.0
2017-Apr-28 02:55N 51°33' W 002°59'0 0.0
2017-Apr-28 02:25N 51°33' W 002°59'0 0.0
2017-Apr-28 01:55N 51°33' W 002°59'0 0.0
2017-Apr-28 01:01N 51°33' W 002°59'0 0.0
2017-Apr-27 23:55N 51°33' W 002°59'0 0.0
2017-Apr-27 23:25N 51°33' W 002°59'0 0.0
2017-Apr-27 22:55N 51°33' W 002°59'0 0.0
2017-Apr-27 20:25N 51°33' W 002°59'0 0.8
2017-Apr-27 20:00N 51°33' W 002°59'1 2.4
2017-Apr-27 19:30N 51°32' W 002°58'5 9.6
2017-Apr-27 19:01N 51°28' W 003°02'42 6.0
2017-Apr-27 12:07N 51°20' W 004°08'1 5.9
2017-Apr-27 11:57N 51°19' W 004°09'4 5.7
2017-Apr-27 11:13N 51°19' W 004°16'3 5.9
2017-Apr-27 10:43N 51°19' W 004°21'3 5.9
2017-Apr-27 10:09N 51°19' W 004°26'0 3.3
2017-Apr-27 10:01N 51°19' W 004°27'1 2.9
2017-Apr-27 09:30N 51°19' W 004°29'2 3.3
2017-Apr-27 08:59N 51°19' W 004°32'3 4.1
2017-Apr-27 08:23N 51°19' W 004°36'2 4.8
2017-Apr-27 08:01N 51°19' W 004°39'3 5.5
2017-Apr-27 07:26N 51°19' W 004°44'3 6.1
2017-Apr-27 07:01N 51°18' W 004°48'3 6.1
2017-Apr-27 06:31N 51°18' W 004°53'3 6.6
2017-Apr-27 06:00N 51°18' W 004°58'10 7.6
2017-Apr-27 04:40N 51°17' W 005°14'1 8.5
2017-Apr-27 04:31N 51°16' W 005°16'8 9.3
2017-Apr-27 03:41N 51°16' W 005°29'136 9.4
2017-Apr-26 13:10N 51°09' W 009°05'1 9.3
2017-Apr-26 13:01N 51°09' W 009°08'6 9.1
2017-Apr-26 12:20N 51°09' W 009°18'4 8.6
2017-Apr-26 11:49N 51°11' W 009°24'3 8.6
2017-Apr-26 11:30N 51°12' W 009°28'4 8.5
2017-Apr-26 11:00N 51°13' W 009°35'4 8.5
2017-Apr-26 10:30N 51°15' W 009°41'4 8.5
2017-Apr-26 10:01N 51°16' W 009°47'4 8.6
2017-Apr-26 09:31N 51°18' W 009°54'4 9.0
2017-Apr-26 09:01N 51°19' W 010°00'5 9.2
2017-Apr-26 08:31N 51°21' W 010°07'8 9.5
2017-Apr-26 07:41N 51°24' W 010°19'2 9.7
2017-Apr-26 07:29N 51°25' W 010°22'  
2017-Apr-19 10:37N 39°23' W 009°51'2 7.8
2017-Apr-19 10:24N 39°22' W 009°51'3 7.8
2017-Apr-19 10:00N 39°18' W 009°51'4 7.7
2017-Apr-19 09:30N 39°15' W 009°51'4 7.9
2017-Apr-19 09:00N 39°11' W 009°51'4 7.9
2017-Apr-19 08:30N 39°07' W 009°51'4 8.0
2017-Apr-19 08:00N 39°03' W 009°51'4 7.7
2017-Apr-19 07:30N 38°59' W 009°51'4 7.7
2017-Apr-19 07:00N 38°55' W 009°51'4 7.8
2017-Apr-19 06:30N 38°51' W 009°51'4 8.0
2017-Apr-19 06:00N 38°47' W 009°51'4 7.8
2017-Apr-19 05:30N 38°43' W 009°51'4 7.8
2017-Apr-19 05:00N 38°39' W 009°51'4 7.7
2017-Apr-19 04:30N 38°36' W 009°50'4 7.5
2017-Apr-19 04:00N 38°32' W 009°48'4 7.4
2017-Apr-19 03:30N 38°28' W 009°47'4 7.4
2017-Apr-19 03:00N 38°25' W 009°46'4 7.3
2017-Apr-19 02:31N 38°21' W 009°45'4 7.9
2017-Apr-19 02:00N 38°17' W 009°44'4 8.2
2017-Apr-19 01:30N 38°13' W 009°43'4 8.4
2017-Apr-19 01:01N 38°09' W 009°42'4 8.4
2017-Apr-19 00:31N 38°05' W 009°40'4 8.3
2017-Apr-19 00:01N 38°01' W 009°39'4 8.3
2017-Apr-18 23:30N 37°57' W 009°38'5 8.4
2017-Apr-18 22:53N 37°52' W 009°36'5 8.6
2017-Apr-18 22:18N 37°47' W 009°35'7 8.9
2017-Apr-18 21:32N 37°41' W 009°33'0 9.0
2017-Apr-18 21:30N 37°40' W 009°33'4 8.9
2017-Apr-18 21:00N 37°36' W 009°32'39 8.9
2017-Apr-18 16:39N 36°58' W 009°20'1 8.5
2017-Apr-18 16:29N 36°57' W 009°20'612.2
2017-Apr-18 15:58N 36°51' W 009°17'  
Track history (hours):
 
Tides and Currents Weather Stations Pressure Air Temp Water Temp Dewpoint Dewpoint Depression Visibility Wind Speed Wind Dir Waves Ship Positions

Priwall

Last reported at 2017-Apr-28 15:49 UTC. Time now 2017-Apr-28 16:10 UTC.
Position N 51°33' W 002°59'.

Length 88 m; draft 3.3 m.

Type: Cargo ship. MMSI: 304739000.

Date/timePositionNaut miles runAvg speedWind from/ knotsBaromVisibWave heightAir tempDewpointWater temp
2017-Apr-28 15:49N 51°33' W 002°59'0 0.0
2017-Apr-28 15:13N 51°33' W 002°59'0 0.0
2017-Apr-28 14:55N 51°33' W 002°59'0 0.0
2017-Apr-28 13:55N 51°33' W 002°59'0 0.0
2017-Apr-28 13:19N 51°33' W 002°59'0 0.0
2017-Apr-28 12:55N 51°33' W 002°59'0 0.0
2017-Apr-28 12:25N 51°33' W 002°59'0 0.0
2017-Apr-28 11:55N 51°33' W 002°59'0 0.0
2017-Apr-28 11:25N 51°33' W 002°59'0 0.0
2017-Apr-28 10:55N 51°33' W 002°59'0 0.0
2017-Apr-28 10:07N 51°33' W 002°59'0 0.0
2017-Apr-28 05:37N 51°33' W 002°59'0 0.0
2017-Apr-28 05:25N 51°33' W 002°59'0 0.0
2017-Apr-28 04:13N 51°33' W 002°59'0 0.0
2017-Apr-28 03:43N 51°33' W 002°59'0 0.0
2017-Apr-28 03:19N 51°33' W 002°59'0 0.0
2017-Apr-28 02:55N 51°33' W 002°59'0 0.0
2017-Apr-28 02:25N 51°33' W 002°59'0 0.0
2017-Apr-28 01:55N 51°33' W 002°59'0 0.0
2017-Apr-28 01:01N 51°33' W 002°59'0 0.0
2017-Apr-27 23:55N 51°33' W 002°59'0 0.0
2017-Apr-27 23:25N 51°33' W 002°59'0 0.0
2017-Apr-27 22:55N 51°33' W 002°59'0 0.0
2017-Apr-27 20:25N 51°33' W 002°59'0 0.8
2017-Apr-27 20:00N 51°33' W 002°59'1 2.4
2017-Apr-27 19:30N 51°32' W 002°58'5 9.6
2017-Apr-27 19:01N 51°28' W 003°02'42 6.0
2017-Apr-27 12:07N 51°20' W 004°08'1 5.9
2017-Apr-27 11:57N 51°19' W 004°09'4 5.7
2017-Apr-27 11:13N 51°19' W 004°16'3 5.9
2017-Apr-27 10:43N 51°19' W 004°21'3 5.9
2017-Apr-27 10:09N 51°19' W 004°26'0 3.3
2017-Apr-27 10:01N 51°19' W 004°27'1 2.9
2017-Apr-27 09:30N 51°19' W 004°29'2 3.3
2017-Apr-27 08:59N 51°19' W 004°32'3 4.1
2017-Apr-27 08:23N 51°19' W 004°36'2 4.8
2017-Apr-27 08:01N 51°19' W 004°39'3 5.5
2017-Apr-27 07:26N 51°19' W 004°44'3 6.1
2017-Apr-27 07:01N 51°18' W 004°48'3 6.1
2017-Apr-27 06:31N 51°18' W 004°53'3 6.6
2017-Apr-27 06:00N 51°18' W 004°58'10 7.6
2017-Apr-27 04:40N 51°17' W 005°14'1 8.5
2017-Apr-27 04:31N 51°16' W 005°16'8 9.3
2017-Apr-27 03:41N 51°16' W 005°29'136 9.4
2017-Apr-26 13:10N 51°09' W 009°05'1 9.3
2017-Apr-26 13:01N 51°09' W 009°08'6 9.1
2017-Apr-26 12:20N 51°09' W 009°18'4 8.6
2017-Apr-26 11:49N 51°11' W 009°24'3 8.6
2017-Apr-26 11:30N 51°12' W 009°28'4 8.5
2017-Apr-26 11:00N 51°13' W 009°35'4 8.5
2017-Apr-26 10:30N 51°15' W 009°41'4 8.5
2017-Apr-26 10:01N 51°16' W 009°47'4 8.6
2017-Apr-26 09:31N 51°18' W 009°54'4 9.0
2017-Apr-26 09:01N 51°19' W 010°00'5 9.2
2017-Apr-26 08:31N 51°21' W 010°07'8 9.5
2017-Apr-26 07:41N 51°24' W 010°19'2 9.7
2017-Apr-26 07:29N 51°25' W 010°22'  
2017-Apr-19 10:37N 39°23' W 009°51'2 7.8
2017-Apr-19 10:24N 39°22' W 009°51'3 7.8
2017-Apr-19 10:00N 39°18' W 009°51'4 7.7
2017-Apr-19 09:30N 39°15' W 009°51'4 7.9
2017-Apr-19 09:00N 39°11' W 009°51'4 7.9
2017-Apr-19 08:30N 39°07' W 009°51'4 8.0
2017-Apr-19 08:00N 39°03' W 009°51'4 7.7
2017-Apr-19 07:30N 38°59' W 009°51'4 7.7
2017-Apr-19 07:00N 38°55' W 009°51'4 7.8
2017-Apr-19 06:30N 38°51' W 009°51'4 8.0
2017-Apr-19 06:00N 38°47' W 009°51'4 7.8
2017-Apr-19 05:30N 38°43' W 009°51'4 7.8
2017-Apr-19 05:00N 38°39' W 009°51'4 7.7
2017-Apr-19 04:30N 38°36' W 009°50'4 7.5
2017-Apr-19 04:00N 38°32' W 009°48'4 7.4
2017-Apr-19 03:30N 38°28' W 009°47'4 7.4
2017-Apr-19 03:00N 38°25' W 009°46'4 7.3
2017-Apr-19 02:31N 38°21' W 009°45'4 7.9
2017-Apr-19 02:00N 38°17' W 009°44'4 8.2
2017-Apr-19 01:30N 38°13' W 009°43'4 8.4
2017-Apr-19 01:01N 38°09' W 009°42'4 8.4
2017-Apr-19 00:31N 38°05' W 009°40'4 8.3
2017-Apr-19 00:01N 38°01' W 009°39'4 8.3
2017-Apr-18 23:30N 37°57' W 009°38'5 8.4
2017-Apr-18 22:53N 37°52' W 009°36'5 8.6
2017-Apr-18 22:18N 37°47' W 009°35'7 8.9
2017-Apr-18 21:32N 37°41' W 009°33'0 9.0
2017-Apr-18 21:30N 37°40' W 009°33'4 8.9
2017-Apr-18 21:00N 37°36' W 009°32'39 8.9
2017-Apr-18 16:39N 36°58' W 009°20'1 8.5
2017-Apr-18 16:29N 36°57' W 009°20'612.2
2017-Apr-18 15:58N 36°51' W 009°17'  

Dump ship's entire track history